Time;durP1;ratioP1;P1;durP2;ratioP2;P2;SDS_P1;SDS_P2;PMS_P1;PMS_P2;Temp;Humidity;BMP_temperature;BMP_pressure;BME280_temperature;BME280_humidity;BME280_pressure;Samples;Min_cycle;Max_cycle;Signal;HPM_P1;HPM_P2
2021/04/08 00:00:13;;;;;;;6.97;3.90;;;2.20;99.90;;;;;;5063899;28;20209;-64
2021/04/08 00:02:45;;;;;;;6.90;3.60;;;2.20;99.90;;;;;;5071279;28;20228;-63
2021/04/08 00:05:13;;;;;;;15.87;5.10;;;2.20;99.90;;;;;;5060082;28;20195;-62
2021/04/08 00:07:39;;;;;;;13.40;4.03;;;2.20;99.90;;;;;;5051123;28;20210;-62
2021/04/08 00:10:05;;;;;;;13.27;5.13;;;2.10;99.90;;;;;;5061563;28;20248;-63
2021/04/08 00:12:31;;;;;;;11.97;4.87;;;2.10;99.90;;;;;;5069430;28;20247;-64
2021/04/08 00:14:56;;;;;;;8.37;4.77;;;2.10;99.90;;;;;;5061546;28;20214;-62
2021/04/08 00:17:22;;;;;;;8.87;4.83;;;2.10;99.90;;;;;;5051350;28;20620;-64
2021/04/08 00:19:48;;;;;;;16.20;4.90;;;2.10;99.90;;;;;;5054671;28;20197;-64
2021/04/08 00:22:13;;;;;;;6.77;4.47;;;2.10;99.90;;;;;;5051164;28;20175;-64
2021/04/08 00:24:39;;;;;;;13.77;5.53;;;2.10;99.90;;;;;;5056445;28;20202;-63
2021/04/08 00:27:06;;;;;;;7.33;4.50;;;2.10;99.90;;;;;;5070954;28;20679;-64
2021/04/08 00:29:31;;;;;;;8.77;3.63;;;2.10;99.90;;;;;;5064848;28;20199;-63
2021/04/08 00:31:57;;;;;;;8.10;4.17;;;2.10;99.90;;;;;;5050796;28;20227;-64
2021/04/08 00:34:23;;;;;;;6.10;4.03;;;2.10;99.90;;;;;;5042249;28;20186;-64
2021/04/08 00:36:48;;;;;;;17.17;5.63;;;2.10;99.90;;;;;;5070888;28;20170;-64
2021/04/08 00:39:14;;;;;;;8.37;4.13;;;2.20;99.90;;;;;;5063198;28;20178;-63
2021/04/08 00:41:40;;;;;;;10.73;4.23;;;2.20;99.90;;;;;;5068865;28;20208;-63
2021/04/08 00:44:06;;;;;;;8.97;3.93;;;2.20;99.90;;;;;;5064831;28;20535;-64
2021/04/08 00:46:32;;;;;;;9.07;3.67;;;2.20;99.90;;;;;;5051939;28;20183;-64
2021/04/08 00:48:57;;;;;;;10.80;4.03;;;2.20;99.90;;;;;;5050759;28;20568;-64
2021/04/08 00:51:23;;;;;;;14.20;3.77;;;2.20;99.90;;;;;;5053497;28;20666;-63
2021/04/08 00:53:49;;;;;;;8.80;3.53;;;2.20;99.90;;;;;;5063633;28;20262;-62
2021/04/08 00:56:15;;;;;;;12.87;3.83;;;2.20;99.90;;;;;;5052287;28;20167;-63
2021/04/08 00:58:43;;;;;;;8.27;3.03;;;2.20;99.90;;;;;;5074376;28;20241;-64
2021/04/08 01:01:10;;;;;;;12.77;4.67;;;2.20;99.90;;;;;;5073793;28;20166;-64
2021/04/08 01:03:36;;;;;;;10.47;3.93;;;2.10;99.90;;;;;;5036491;28;20172;-64
2021/04/08 01:06:02;;;;;;;7.77;3.70;;;2.10;99.90;;;;;;5054593;28;20199;-64
2021/04/08 01:08:28;;;;;;;9.40;3.73;;;2.10;99.90;;;;;;5054240;28;20516;-63
2021/04/08 01:10:54;;;;;;;9.80;4.03;;;2.10;99.90;;;;;;5071021;28;20263;-64
2021/04/08 01:13:21;;;;;;;11.63;3.70;;;2.10;99.90;;;;;;5070245;28;20632;-63
2021/04/08 01:15:47;;;;;;;10.63;3.80;;;2.10;99.90;;;;;;5053937;28;20210;-63
2021/04/08 01:18:39;;;;;;;6.63;3.23;;;2.10;99.90;;;;;;5073043;28;20185;-62
2021/04/08 01:21:31;;;;;;;10.43;3.63;;;2.00;99.90;;;;;;5054776;28;20170;-66
2021/04/08 01:24:24;;;;;;;6.33;3.40;;;2.00;99.90;;;;;;5054035;28;20177;-64
2021/04/08 01:27:14;;;;;;;5.30;3.33;;;2.00;99.90;;;;;;5056374;28;20539;-62
2021/04/08 01:29:49;;;;;;;10.57;3.87;;;1.90;99.90;;;;;;5053768;28;20202;-63
2021/04/08 01:32:17;;;;;;;11.27;4.90;;;1.90;99.90;;;;;;5062532;28;20166;-63
2021/04/08 01:34:49;;;;;;;9.97;4.07;;;2.00;99.90;;;;;;5073687;28;20197;-65
2021/04/08 01:37:21;;;;;;;9.03;3.90;;;2.00;99.90;;;;;;5065277;28;20217;-64
2021/04/08 01:39:48;;;;;;;10.30;4.60;;;2.00;99.90;;;;;;5054547;28;20193;-64
2021/04/08 01:42:15;;;;;;;9.43;3.70;;;2.10;99.90;;;;;;5054874;28;20189;-64
2021/04/08 01:44:44;;;;;;;8.23;3.90;;;2.10;99.90;;;;;;5053368;28;20202;-63
2021/04/08 01:47:10;;;;;;;10.67;4.10;;;2.10;99.90;;;;;;5066112;28;20187;-63
2021/04/08 01:49:41;;;;;;;8.63;3.87;;;2.10;99.90;;;;;;5053328;28;20245;-64
2021/04/08 01:52:08;;;;;;;7.37;4.93;;;2.20;99.90;;;;;;5070897;28;20268;-64
2021/04/08 01:54:36;;;;;;;7.83;4.87;;;2.20;99.90;;;;;;5073368;28;20186;-63
2021/04/08 01:57:05;;;;;;;8.80;4.20;;;2.10;99.90;;;;;;5057472;28;20175;-62
2021/04/08 01:59:32;;;;;;;6.57;3.83;;;2.10;99.90;;;;;;5053841;28;20206;-64
2021/04/08 02:01:59;;;;;;;11.43;4.77;;;2.00;99.90;;;;;;5058106;28;20586;-64
2021/04/08 02:04:27;;;;;;;11.50;4.30;;;2.00;99.90;;;;;;5053276;28;20714;-64
2021/04/08 02:06:53;;;;;;;11.60;3.97;;;2.00;99.90;;;;;;5066195;28;20648;-64
2021/04/08 02:09:23;;;;;;;9.33;5.17;;;2.00;99.90;;;;;;5073086;28;20202;-64
2021/04/08 02:11:51;;;;;;;11.67;5.10;;;2.00;99.90;;;;;;5060708;28;20183;-63
2021/04/08 02:14:17;;;;;;;8.87;4.63;;;2.00;99.90;;;;;;5052865;28;20203;-64
2021/04/08 02:16:50;;;;;;;8.00;3.87;;;1.90;99.90;;;;;;5063106;28;20173;-64
2021/04/08 02:19:18;;;;;;;10.27;4.03;;;2.00;99.90;;;;;;5072819;28;20249;-62
2021/04/08 02:21:46;;;;;;;10.87;4.70;;;2.00;99.90;;;;;;5062443;28;20521;-67
2021/04/08 02:24:14;;;;;;;12.43;4.00;;;2.00;99.90;;;;;;5052892;28;20183;-63
2021/04/08 02:26:45;;;;;;;7.90;3.80;;;2.00;99.90;;;;;;5061269;28;20220;-63
2021/04/08 02:29:13;;;;;;;7.43;3.80;;;2.10;99.90;;;;;;5070954;28;20202;-63
2021/04/08 02:31:40;;;;;;;6.73;3.07;;;2.10;99.90;;;;;;5067718;28;20699;-62
2021/04/08 02:34:08;;;;;;;3.90;2.90;;;2.20;99.90;;;;;;5052807;28;20167;-62
2021/04/08 02:36:36;;;;;;;8.00;3.10;;;2.20;99.90;;;;;;5058821;28;20174;-62
2021/04/08 02:39:04;;;;;;;5.77;3.67;;;2.20;99.90;;;;;;5072425;28;20170;-63
2021/04/08 02:41:30;;;;;;;5.20;3.20;;;2.20;99.90;;;;;;5066596;28;20178;-64
2021/04/08 02:43:56;;;;;;;3.23;2.83;;;2.30;99.90;;;;;;5052508;28;20174;-64
2021/04/08 02:46:21;;;;;;;11.63;3.50;;;2.30;99.90;;;;;;5056641;28;20182;-63
2021/04/08 02:48:47;;;;;;;17.20;3.43;;;2.30;99.90;;;;;;5054870;28;20183;-63
2021/04/08 02:51:24;;;;;;;5.17;3.20;;;2.20;99.90;;;;;;5059022;28;20546;-63
2021/04/08 02:54:03;;;;;;;5.87;2.70;;;2.20;99.90;;;;;;5072328;28;20780;-62
2021/04/08 02:56:45;;;;;;;5.40;2.70;;;2.20;99.90;;;;;;5045513;28;20181;-64
2021/04/08 02:59:25;;;;;;;8.07;3.20;;;2.20;99.90;;;;;;5052062;28;20640;-62
2021/04/08 03:02:05;;;;;;;5.07;2.87;;;2.20;99.90;;;;;;5064539;28;20189;-65
2021/04/08 03:04:37;;;;;;;5.27;2.87;;;2.20;99.90;;;;;;5070308;28;20378;-63
2021/04/08 03:07:04;;;;;;;7.60;2.87;;;2.20;99.90;;;;;;5071990;28;20170;-64
2021/04/08 03:09:34;;;;;;;7.13;3.00;;;2.10;99.90;;;;;;5060585;28;20198;-64
2021/04/08 03:12:05;;;;;;;6.63;2.80;;;2.10;99.90;;;;;;5051895;28;20171;-65
2021/04/08 03:17:02;;;;;;;6.17;3.07;;;2.20;99.90;;;;;;5036280;28;20223;-66
2021/04/08 03:19:29;;;;;;;3.47;3.00;;;2.20;99.90;;;;;;5017074;28;20712;-67
2021/04/08 03:21:56;;;;;;;10.53;3.70;;;2.20;99.90;;;;;;5038386;28;20175;-67
2021/04/08 03:24:23;;;;;;;8.87;4.33;;;2.20;99.90;;;;;;5039203;28;20168;-67
2021/04/08 03:26:49;;;;;;;10.53;4.53;;;2.20;99.90;;;;;;5038884;28;20214;-67
2021/04/08 03:29:16;;;;;;;31.03;4.17;;;2.20;99.90;;;;;;5021545;28;20204;-65
2021/04/08 03:31:45;;;;;;;9.27;3.57;;;2.20;99.90;;;;;;5038332;28;20170;-69
2021/04/08 03:34:13;;;;;;;10.47;4.20;;;2.20;99.90;;;;;;5038244;28;20168;-65
2021/04/08 03:36:39;;;;;;;8.90;4.20;;;2.10;99.90;;;;;;5038644;28;20255;-67
2021/04/08 03:39:07;;;;;;;9.33;4.40;;;2.20;99.90;;;;;;5038704;28;20243;-66
2021/04/08 03:41:42;;;;;;;7.40;5.00;;;2.10;99.90;;;;;;5037778;28;20171;-69
2021/04/08 03:44:12;;;;;;;9.30;5.67;;;2.20;99.90;;;;;;5038477;28;20217;-66
2021/04/08 03:46:39;;;;;;;16.00;6.90;;;2.20;99.90;;;;;;5038512;28;20167;-63
2021/04/08 03:49:08;;;;;;;13.23;6.57;;;2.20;99.90;;;;;;5039090;28;20175;-66
2021/04/08 03:51:37;;;;;;;12.00;7.30;;;2.20;99.90;;;;;;5040683;28;20167;-66
2021/04/08 03:54:14;;;;;;;10.30;6.73;;;2.20;99.90;;;;;;5040890;28;20190;-66
2021/04/08 03:56:44;;;;;;;15.93;8.03;;;2.20;99.90;;;;;;5021664;28;20160;-67
2021/04/08 03:59:10;;;;;;;15.73;6.93;;;2.20;99.90;;;;;;5012152;28;20223;-64
2021/04/08 04:01:37;;;;;;;13.83;8.10;;;2.20;99.90;;;;;;5011743;28;20203;-64
2021/04/08 04:04:08;;;;;;;11.93;7.37;;;2.20;99.90;;;;;;5012055;28;20547;-64
2021/04/08 04:06:36;;;;;;;12.23;6.60;;;2.20;99.90;;;;;;5031138;28;20192;-64
2021/04/08 04:09:06;;;;;;;10.17;7.07;;;2.30;99.90;;;;;;5031335;28;20190;-64
2021/04/08 04:11:32;;;;;;;13.00;7.27;;;2.30;99.90;;;;;;5030823;28;20180;-64
2021/04/08 04:14:03;;;;;;;10.67;7.93;;;2.30;99.90;;;;;;5031301;28;20175;-64
2021/04/08 04:16:32;;;;;;;11.27;7.53;;;2.20;99.90;;;;;;5030807;28;20215;-64
2021/04/08 04:18:57;;;;;;;9.63;7.37;;;2.30;99.90;;;;;;5031352;28;20567;-64
2021/04/08 04:21:23;;;;;;;13.03;7.73;;;2.30;99.90;;;;;;5030741;28;20187;-64
2021/04/08 04:23:49;;;;;;;12.03;8.03;;;2.30;99.90;;;;;;5031017;28;20565;-64
2021/04/08 04:26:15;;;;;;;11.47;8.53;;;2.30;99.90;;;;;;5031255;28;20198;-64
2021/04/08 04:28:40;;;;;;;11.13;8.00;;;2.30;99.90;;;;;;5030877;28;20637;-64
2021/04/08 04:31:06;;;;;;;13.73;8.90;;;2.30;99.90;;;;;;5030415;28;20672;-64
2021/04/08 04:33:32;;;;;;;14.93;8.93;;;2.20;99.90;;;;;;5035130;28;20172;-64
2021/04/08 04:35:57;;;;;;;14.87;8.40;;;2.20;99.90;;;;;;5034850;28;20199;-64
2021/04/08 04:38:23;;;;;;;11.90;7.90;;;2.10;99.90;;;;;;5035198;28;20507;-64
2021/04/08 04:40:49;;;;;;;15.20;9.00;;;2.20;99.90;;;;;;5034429;28;20180;-64
2021/04/08 04:43:15;;;;;;;20.53;8.77;;;2.10;99.90;;;;;;5035033;28;20175;-64
2021/04/08 04:45:40;;;;;;;10.10;7.47;;;2.10;99.90;;;;;;5034471;28;20206;-64
2021/04/08 04:48:09;;;;;;;15.00;8.43;;;2.10;99.90;;;;;;5034590;28;20233;-64
2021/04/08 04:50:34;;;;;;;14.40;8.63;;;2.10;99.90;;;;;;5034294;28;20711;-64
2021/04/08 04:53:00;;;;;;;14.73;8.07;;;2.10;99.90;;;;;;5034443;28;20622;-64
2021/04/08 04:55:26;;;;;;;14.27;8.93;;;2.10;99.90;;;;;;5034509;28;20643;-64
2021/04/08 04:57:51;;;;;;;10.50;7.90;;;2.10;99.90;;;;;;5034172;28;20199;-64
2021/04/08 05:00:17;;;;;;;17.43;10.00;;;2.10;99.90;;;;;;5034212;28;20168;-64
2021/04/08 05:02:43;;;;;;;13.83;9.20;;;2.10;99.90;;;;;;5034243;28;20187;-64
2021/04/08 05:05:09;;;;;;;18.53;9.13;;;2.10;99.90;;;;;;5033892;28;20612;-64
2021/04/08 05:07:35;;;;;;;18.80;9.13;;;2.00;99.90;;;;;;5034393;28;20660;-64
2021/04/08 05:10:00;;;;;;;14.10;8.80;;;2.00;99.90;;;;;;5033901;28;20199;-64
2021/04/08 05:12:26;;;;;;;17.50;9.27;;;2.00;99.90;;;;;;5034125;28;20172;-64
2021/04/08 05:14:52;;;;;;;19.93;9.10;;;2.00;99.90;;;;;;5034162;28;20195;-64
2021/04/08 05:17:17;;;;;;;14.27;9.27;;;2.10;99.90;;;;;;5034160;28;20183;-64
2021/04/08 05:19:43;;;;;;;13.57;9.40;;;2.00;99.90;;;;;;5033940;28;20584;-65
2021/04/08 05:22:08;;;;;;;18.77;10.13;;;2.10;99.90;;;;;;5033754;28;20693;-64
2021/04/08 05:24:34;;;;;;;16.13;10.10;;;2.10;99.90;;;;;;5034215;28;20219;-64
2021/04/08 05:27:00;;;;;;;11.03;8.33;;;2.20;99.90;;;;;;5016218;28;20171;-64
2021/04/08 05:29:26;;;;;;;16.30;8.37;;;2.20;99.90;;;;;;5033532;28;20612;-64
2021/04/08 05:31:51;;;;;;;15.40;10.03;;;2.20;99.90;;;;;;5033579;28;20206;-64
2021/04/08 05:34:17;;;;;;;11.60;8.90;;;2.30;99.90;;;;;;5020116;28;20218;-64
2021/04/08 05:36:42;;;;;;;15.27;9.80;;;2.30;99.90;;;;;;5033866;28;20176;-64
2021/04/08 05:39:08;;;;;;;15.57;8.73;;;2.30;99.90;;;;;;5033434;28;20163;-64
2021/04/08 05:41:34;;;;;;;21.00;9.37;;;2.30;99.90;;;;;;5033278;28;20188;-64
2021/04/08 05:43:59;;;;;;;14.87;8.77;;;2.40;99.90;;;;;;5033441;28;20174;-64
2021/04/08 05:46:25;;;;;;;16.67;9.43;;;2.50;99.90;;;;;;5032894;28;20200;-64
2021/04/08 05:48:51;;;;;;;12.40;8.90;;;2.50;99.90;;;;;;5032648;28;20191;-64
2021/04/08 05:51:16;;;;;;;12.53;8.17;;;2.60;99.90;;;;;;5032880;28;20219;-64
2021/04/08 05:53:42;;;;;;;8.80;7.57;;;2.60;99.90;;;;;;5033434;28;20178;-64
2021/04/08 05:56:08;;;;;;;13.87;8.53;;;2.70;99.90;;;;;;5033005;28;20196;-63
2021/04/08 05:58:33;;;;;;;11.97;8.00;;;2.80;99.90;;;;;;5033290;28;20188;-64
2021/04/08 06:00:59;;;;;;;11.00;8.63;;;2.80;99.90;;;;;;5033027;28;20625;-64
2021/04/08 06:03:25;;;;;;;13.10;8.00;;;2.90;99.90;;;;;;5032968;28;20171;-64
2021/04/08 06:05:51;;;;;;;11.30;7.77;;;3.00;99.90;;;;;;5033197;28;20215;-64
2021/04/08 06:08:17;;;;;;;12.63;7.43;;;3.00;99.90;;;;;;5032988;28;20199;-64
2021/04/08 06:10:42;;;;;;;16.33;8.00;;;3.10;99.90;;;;;;5032547;28;20202;-64
2021/04/08 06:13:08;;;;;;;11.83;6.63;;;3.10;99.90;;;;;;5032799;28;20182;-64
2021/04/08 06:15:33;;;;;;;13.17;7.30;;;3.20;99.90;;;;;;5032593;28;20203;-63
2021/04/08 06:17:59;;;;;;;8.97;6.97;;;3.20;99.90;;;;;;5032734;28;20664;-63
2021/04/08 06:20:25;;;;;;;16.07;6.77;;;3.30;99.90;;;;;;5032703;28;20175;-63
2021/04/08 06:22:56;;;;;;;15.00;6.67;;;3.40;99.90;;;;;;5032572;28;20218;-63
2021/04/08 06:25:22;;;;;;;9.90;6.63;;;3.50;99.90;;;;;;5031556;28;20207;-63
2021/04/08 06:27:48;;;;;;;9.93;6.47;;;3.60;99.90;;;;;;5033169;28;20667;-63
2021/04/08 06:30:14;;;;;;;10.77;6.53;;;3.70;99.90;;;;;;5032318;28;20203;-63
2021/04/08 06:32:40;;;;;;;14.33;7.23;;;3.70;99.90;;;;;;5032309;28;20230;-64
2021/04/08 06:35:07;;;;;;;9.67;7.07;;;3.90;99.90;;;;;;5032480;28;20628;-64
2021/04/08 06:37:33;;;;;;;9.20;6.40;;;4.00;99.90;;;;;;5032273;28;20380;-64
2021/04/08 06:39:58;;;;;;;9.93;5.50;;;4.00;99.90;;;;;;5032221;28;20171;-63
2021/04/08 06:42:24;;;;;;;10.73;6.20;;;4.30;99.90;;;;;;5032655;28;20182;-64
2021/04/08 06:44:51;;;;;;;11.83;6.57;;;4.50;99.90;;;;;;5032022;28;20685;-64
2021/04/08 06:47:24;;;;;;;14.63;6.00;;;4.50;99.90;;;;;;5031907;28;20183;-63
2021/04/08 06:49:56;;;;;;;12.03;7.13;;;4.60;99.90;;;;;;5031444;28;20254;-64
2021/04/08 06:52:23;;;;;;;8.50;5.77;;;4.70;99.90;;;;;;5032315;28;20164;-63
2021/04/08 06:54:49;;;;;;;12.47;6.30;;;4.80;99.90;;;;;;5030682;28;20265;-63
2021/04/08 06:57:18;;;;;;;12.87;7.00;;;5.00;99.90;;;;;;5031853;28;20182;-63
2021/04/08 06:59:45;;;;;;;8.23;5.80;;;5.10;99.90;;;;;;5031811;28;20176;-64
2021/04/08 07:02:15;;;;;;;9.80;5.37;;;5.30;99.90;;;;;;5032034;28;20727;-63
2021/04/08 07:04:41;;;;;;;11.53;5.53;;;5.40;99.90;;;;;;5014367;28;20201;-63
2021/04/08 07:07:06;;;;;;;6.33;4.83;;;5.50;99.90;;;;;;5032015;28;20259;-64
2021/04/08 07:09:32;;;;;;;6.70;5.47;;;5.60;99.90;;;;;;5031706;28;20207;-64
2021/04/08 07:12:01;;;;;;;8.67;5.07;;;5.90;99.90;;;;;;5031129;28;20241;-64
2021/04/08 07:14:28;;;;;;;7.53;4.80;;;6.00;99.90;;;;;;5031902;28;20274;-64
2021/04/08 07:16:54;;;;;;;5.80;4.10;;;6.10;99.90;;;;;;5031613;28;20221;-63
2021/04/08 07:19:20;;;;;;;9.83;6.37;;;6.10;99.90;;;;;;5031654;28;20178;-63
2021/04/08 07:21:45;;;;;;;7.83;3.83;;;6.00;99.90;;;;;;5031378;28;20648;-63
2021/04/08 07:24:18;;;;;;;6.87;5.13;;;5.90;99.90;;;;;;5031664;28;20174;-64
2021/04/08 07:27:02;;;;;;;5.73;4.00;;;6.00;99.90;;;;;;5031419;28;20186;-63
2021/04/08 07:29:40;;;;;;;7.77;4.00;;;6.10;99.90;;;;;;5031266;28;20726;-63
2021/04/08 07:32:10;;;;;;;9.60;4.30;;;6.10;99.90;;;;;;5031357;28;20167;-63
2021/04/08 07:34:42;;;;;;;10.30;3.53;;;6.20;99.90;;;;;;5030887;28;20250;-64
2021/04/08 07:37:09;;;;;;;8.87;4.23;;;6.50;99.90;;;;;;5028640;28;20167;-64
2021/04/08 07:39:40;;;;;;;9.50;4.47;;;6.50;99.90;;;;;;5030637;28;20179;-63
2021/04/08 07:42:15;;;;;;;13.90;4.20;;;6.80;99.90;;;;;;5031039;28;20617;-64
2021/04/08 07:44:50;;;;;;;9.93;4.63;;;7.00;99.90;;;;;;5013530;28;20728;-63
2021/04/08 07:47:21;;;;;;;8.87;3.97;;;7.10;99.90;;;;;;5030811;28;20186;-63
2021/04/08 07:49:50;;;;;;;7.07;4.40;;;7.20;99.90;;;;;;5029420;28;20289;-64
2021/04/08 07:52:16;;;;;;;10.07;4.80;;;7.20;99.90;;;;;;5031320;28;20175;-63
2021/04/08 07:54:57;;;;;;;6.47;4.60;;;7.20;99.90;;;;;;5030621;28;20544;-64
2021/04/08 07:57:22;;;;;;;7.23;4.37;;;7.40;99.90;;;;;;5030161;28;20340;-64
2021/04/08 07:59:48;;;;;;;7.43;4.83;;;7.60;99.90;;;;;;5031046;28;20179;-64
2021/04/08 08:02:14;;;;;;;12.97;5.27;;;7.60;99.90;;;;;;5031121;28;20241;-63
2021/04/08 08:04:39;;;;;;;10.10;4.60;;;7.60;99.90;;;;;;5031396;28;20716;-63
2021/04/08 08:07:05;;;;;;;8.17;4.50;;;7.60;99.90;;;;;;5033943;28;20202;-63
2021/04/08 08:09:32;;;;;;;8.23;5.27;;;7.60;99.90;;;;;;5034642;28;20613;-64
2021/04/08 08:12:11;;;;;;;10.07;4.70;;;7.50;99.90;;;;;;5034837;28;20225;-63
2021/04/08 08:14:42;;;;;;;11.13;6.53;;;7.60;99.90;;;;;;5015429;28;20287;-64
2021/04/08 08:17:08;;;;;;;8.57;4.90;;;7.90;99.90;;;;;;5028294;28;20187;-64
2021/04/08 08:19:35;;;;;;;9.40;5.50;;;7.90;99.90;;;;;;5035029;28;20220;-64
2021/04/08 08:22:03;;;;;;;6.47;4.57;;;7.80;99.90;;;;;;5034655;28;20203;-63
2021/04/08 08:24:29;;;;;;;8.53;4.87;;;7.60;99.90;;;;;;5034624;28;20223;-64
2021/04/08 08:26:55;;;;;;;7.40;4.63;;;7.40;99.90;;;;;;5034674;28;20225;-64
2021/04/08 08:29:26;;;;;;;9.07;3.90;;;7.50;99.90;;;;;;5034844;28;20633;-63
2021/04/08 08:31:57;;;;;;;4.00;3.50;;;7.70;99.90;;;;;;5033690;28;20539;-63
2021/04/08 08:34:25;;;;;;;8.23;4.00;;;8.00;99.90;;;;;;5034753;28;20200;-63
2021/04/08 08:36:56;;;;;;;8.40;4.73;;;8.10;99.90;;;;;;5033140;28;20186;-63
2021/04/08 08:39:34;;;;;;;8.93;4.83;;;8.40;99.90;;;;;;5034835;28;20183;-63
2021/04/08 08:42:03;;;;;;;7.37;3.80;;;8.70;99.90;;;;;;5034565;28;20210;-64
2021/04/08 08:44:29;;;;;;;5.73;3.50;;;9.00;99.90;;;;;;5034311;28;20590;-64
2021/04/08 08:46:59;;;;;;;7.17;4.30;;;9.10;99.90;;;;;;5034657;28;20262;-64
2021/04/08 08:49:44;;;;;;;9.20;4.50;;;9.00;99.90;;;;;;5025000;28;20211;-64
2021/04/08 08:52:12;;;;;;;12.20;4.00;;;8.90;99.90;;;;;;5028783;28;20175;-64
2021/04/08 08:54:38;;;;;;;6.53;4.23;;;8.90;99.90;;;;;;5034009;28;20195;-64
2021/04/08 08:57:06;;;;;;;6.57;4.27;;;9.00;99.90;;;;;;5032444;28;20172;-64
2021/04/08 08:59:32;;;;;;;8.00;4.57;;;8.90;99.90;;;;;;5034018;28;20253;-64
2021/04/08 09:01:58;;;;;;;6.87;4.30;;;8.80;99.90;;;;;;5033014;28;20210;-64
2021/04/08 09:04:24;;;;;;;11.20;4.33;;;8.70;99.90;;;;;;5034363;28;20176;-63
2021/04/08 09:06:52;;;;;;;7.10;4.43;;;8.80;99.90;;;;;;5027971;28;20649;-64
2021/04/08 09:09:20;;;;;;;8.37;3.57;;;9.00;99.90;;;;;;5033331;28;20191;-63
2021/04/08 09:11:46;;;;;;;5.47;3.33;;;9.10;99.90;;;;;;5032919;28;20641;-64
2021/04/08 09:14:14;;;;;;;5.83;3.90;;;8.90;99.90;;;;;;5033843;28;20313;-63
2021/04/08 09:16:47;;;;;;;6.13;3.23;;;9.20;99.90;;;;;;5042227;22;20235;-63
2021/04/08 09:19:22;;;;;;;5.80;3.20;;;9.30;99.90;;;;;;5014204;28;20171;-64
2021/04/08 09:21:51;;;;;;;5.80;3.90;;;9.60;99.90;;;;;;5019255;28;20195;-63
2021/04/08 09:24:39;;;;;;;4.17;3.20;;;9.70;99.90;;;;;;5015373;28;20227;-63
2021/04/08 09:27:08;;;;;;;3.67;3.10;;;9.70;99.90;;;;;;5000832;28;20204;-63
2021/04/08 09:29:58;;;;;;;3.47;2.47;;;9.70;99.90;;;;;;5002634;28;20565;-64
2021/04/08 09:32:24;;;;;;;4.93;3.33;;;9.80;99.90;;;;;;5004370;28;20216;-63
2021/04/08 09:35:08;;;;;;;8.53;4.10;;;9.70;99.90;;;;;;4995545;28;20517;-64
2021/04/08 09:37:48;;;;;;;7.23;3.63;;;10.30;99.90;;;;;;4998852;28;20185;-63
2021/04/08 09:40:31;;;;;;;4.10;2.93;;;10.70;99.90;;;;;;5012876;28;20270;-63
2021/04/08 09:43:01;;;;;;;5.17;3.00;;;10.30;98.50;;;;;;4996995;28;20184;-62
2021/04/08 09:45:29;;;;;;;3.00;2.37;;;10.10;99.20;;;;;;4994043;28;20696;-62
2021/04/08 09:48:14;;;;;;;6.90;2.60;;;9.80;96.10;;;;;;4998638;28;20208;-63
2021/04/08 09:50:49;;;;;;;3.97;2.90;;;9.00;96.60;;;;;;4993598;28;20208;-64
2021/04/08 09:53:17;;;;;;;3.87;2.40;;;8.70;95.80;;;;;;5012013;28;20179;-64
2021/04/08 09:55:50;;;;;;;3.00;2.37;;;8.50;97.30;;;;;;4994891;28;20201;-65
2021/04/08 09:58:22;;;;;;;4.93;3.10;;;8.60;96.90;;;;;;4994038;28;20183;-63
2021/04/08 10:00:49;;;;;;;6.17;2.93;;;8.50;95.90;;;;;;5010778;28;20180;-63
2021/04/08 10:03:30;;;;;;;4.27;2.60;;;8.60;95.20;;;;;;5008267;28;20224;-64
2021/04/08 10:05:56;;;;;;;3.70;2.87;;;8.80;95.10;;;;;;5013560;28;20200;-64
2021/04/08 10:08:22;;;;;;;4.37;2.17;;;8.80;96.30;;;;;;4998738;28;20204;-63
2021/04/08 10:10:50;;;;;;;6.80;2.50;;;9.00;94.90;;;;;;4993602;28;20216;-63
2021/04/08 10:13:25;;;;;;;4.73;2.87;;;8.90;94.80;;;;;;4993359;28;20172;-64
2021/04/08 10:15:53;;;;;;;5.40;3.43;;;8.80;95.50;;;;;;5003159;28;20622;-62
2021/04/08 10:18:28;;;;;;;5.90;2.60;;;8.50;96.00;;;;;;5009914;28;20231;-63
2021/04/08 10:21:01;;;;;;;6.77;2.73;;;8.30;95.10;;;;;;5012854;28;20278;-62
2021/04/08 10:23:37;;;;;;;8.37;3.90;;;8.10;95.00;;;;;;5008463;28;20251;-63
2021/04/08 10:26:09;;;;;;;4.67;3.23;;;8.20;96.40;;;;;;5000458;28;20203;-61
2021/04/08 10:28:37;;;;;;;4.60;2.87;;;8.20;96.00;;;;;;4997048;28;20185;-64
2021/04/08 10:31:22;;;;;;;4.20;3.30;;;8.30;96.00;;;;;;4992021;28;20215;-63
2021/04/08 10:33:54;;;;;;;3.90;3.07;;;8.40;96.90;;;;;;4995552;28;20188;-63
2021/04/08 10:36:28;;;;;;;5.70;3.37;;;8.40;96.60;;;;;;4994312;28;20269;-64
2021/04/08 10:39:19;;;;;;;6.37;3.60;;;8.20;95.20;;;;;;5002887;28;20267;-64
2021/04/08 10:42:00;;;;;;;6.73;3.20;;;8.30;97.00;;;;;;5006855;28;20188;-63
2021/04/08 10:44:26;;;;;;;3.90;3.20;;;8.40;97.30;;;;;;4993824;28;20263;-64
2021/04/08 10:46:54;;;;;;;6.33;4.20;;;8.40;98.30;;;;;;4992864;28;20200;-64
2021/04/08 10:49:29;;;;;;;6.70;4.10;;;8.60;98.60;;;;;;4993418;28;20177;-65
2021/04/08 10:51:56;;;;;;;3.70;3.30;;;8.90;99.20;;;;;;4993790;28;20180;-62
2021/04/08 10:54:30;;;;;;;4.50;3.40;;;8.80;96.40;;;;;;4992791;28;20185;-63
2021/04/08 10:56:57;;;;;;;4.13;3.73;;;8.60;97.50;;;;;;4992053;28;20308;-63
2021/04/08 10:59:24;;;;;;;3.40;2.93;;;8.80;97.00;;;;;;4992981;28;20789;-64
2021/04/08 11:01:51;;;;;;;4.53;3.50;;;8.90;95.90;;;;;;4992295;28;20184;-64
2021/04/08 11:04:19;;;;;;;7.67;3.53;;;9.40;97.20;;;;;;5004449;28;20177;-63
2021/04/08 11:06:46;;;;;;;4.53;3.27;;;10.10;95.40;;;;;;4992459;28;20294;-65
2021/04/08 11:09:11;;;;;;;5.03;3.50;;;10.40;95.80;;;;;;4992448;28;20216;-64
2021/04/08 11:11:37;;;;;;;3.90;3.03;;;10.30;96.80;;;;;;4992198;28;20197;-65
2021/04/08 11:14:03;;;;;;;3.83;3.10;;;10.50;96.50;;;;;;4992774;28;20169;-65
2021/04/08 11:16:31;;;;;;;4.13;3.33;;;10.90;96.00;;;;;;5004525;28;20957;-65
2021/04/08 11:18:59;;;;;;;8.47;4.00;;;11.00;95.10;;;;;;4992474;28;20188;-66
2021/04/08 11:21:26;;;;;;;7.00;3.50;;;11.10;96.40;;;;;;5006239;28;20202;-65
2021/04/08 11:23:53;;;;;;;5.27;3.37;;;11.10;95.40;;;;;;5012057;28;20653;-64
2021/04/08 11:26:19;;;;;;;4.30;3.37;;;10.70;93.00;;;;;;4998902;28;20697;-66
2021/04/08 11:28:52;;;;;;;4.00;3.47;;;10.50;94.20;;;;;;5006181;28;20267;-66
2021/04/08 11:31:18;;;;;;;8.27;3.80;;;10.60;95.00;;;;;;4999325;28;20209;-66
2021/04/08 11:33:44;;;;;;;4.83;3.37;;;10.40;93.20;;;;;;4992156;28;20176;-66
2021/04/08 11:36:20;;;;;;;6.77;3.87;;;10.00;93.80;;;;;;4999820;28;20673;-65
2021/04/08 11:38:46;;;;;;;5.50;3.63;;;9.80;94.60;;;;;;4996718;28;20180;-64
2021/04/08 11:41:12;;;;;;;5.57;4.00;;;9.50;94.60;;;;;;4992725;28;20549;-63
2021/04/08 11:43:40;;;;;;;3.57;3.23;;;9.40;96.10;;;;;;4992722;28;20199;-64
2021/04/08 11:46:21;;;;;;;6.57;3.73;;;9.40;95.80;;;;;;5000256;28;20221;-65
2021/04/08 11:48:48;;;;;;;5.27;3.50;;;9.60;96.00;;;;;;4991980;28;20173;-66
2021/04/08 11:51:18;;;;;;;5.73;3.50;;;9.80;95.60;;;;;;4992017;28;20295;-67
2021/04/08 11:53:44;;;;;;;5.20;4.13;;;10.30;95.60;;;;;;4991924;28;20624;-66
2021/04/08 11:56:23;;;;;;;6.93;4.20;;;10.60;94.30;;;;;;4991107;28;20677;-65
2021/04/08 11:58:48;;;;;;;7.13;3.60;;;10.80;95.30;;;;;;4992541;28;20639;-65
2021/04/08 12:01:16;;;;;;;5.10;3.70;;;10.60;94.00;;;;;;4991818;28;20259;-65
2021/04/08 12:03:47;;;;;;;4.13;3.73;;;10.40;93.90;;;;;;4991833;28;20176;-65
2021/04/08 12:06:18;;;;;;;6.40;3.77;;;10.80;93.80;;;;;;4992348;28;20228;-66
2021/04/08 12:08:51;;;;;;;4.30;3.70;;;10.50;94.40;;;;;;4991878;28;20184;-65
2021/04/08 12:11:19;;;;;;;7.47;4.40;;;10.00;93.30;;;;;;4991573;28;20316;-65
2021/04/08 12:14:07;;;;;;;5.43;4.03;;;9.70;94.50;;;;;;4991630;28;20190;-65
2021/04/08 12:16:33;;;;;;;5.03;4.07;;;9.50;94.50;;;;;;4991964;28;20205;-64
2021/04/08 12:19:00;;;;;;;5.80;4.10;;;9.50;95.40;;;;;;4992284;28;20209;-65
2021/04/08 12:21:27;;;;;;;9.60;5.10;;;9.60;94.40;;;;;;4991447;28;20181;-64
2021/04/08 12:23:54;;;;;;;8.40;4.67;;;9.60;94.60;;;;;;4991786;28;20268;-65
2021/04/08 12:26:40;;;;;;;9.70;5.03;;;9.90;95.10;;;;;;4991965;28;20693;-65
2021/04/08 12:29:06;;;;;;;7.47;4.87;;;10.30;94.60;;;;;;5004917;28;20636;-65
2021/04/08 12:31:33;;;;;;;6.27;4.43;;;10.60;94.10;;;;;;4991385;28;20227;-64
2021/04/08 12:33:58;;;;;;;6.20;4.33;;;10.40;94.50;;;;;;4991749;28;20173;-65
2021/04/08 12:36:25;;;;;;;7.43;5.13;;;10.40;94.80;;;;;;5008358;28;20200;-65
2021/04/08 12:38:51;;;;;;;11.43;7.30;;;10.70;95.30;;;;;;5011163;28;20524;-64
2021/04/08 12:41:17;;;;;;;4.97;4.03;;;11.30;93.70;;;;;;5008681;28;20176;-65
2021/04/08 12:43:43;;;;;;;7.03;5.30;;;11.20;91.30;;;;;;5010981;28;20266;-64
2021/04/08 12:46:09;;;;;;;9.20;6.57;;;10.90;93.30;;;;;;4995657;28;20347;-65
2021/04/08 12:48:35;;;;;;;5.60;4.47;;;10.90;94.30;;;;;;4991637;28;20635;-65
2021/04/08 12:51:00;;;;;;;5.30;4.00;;;10.70;93.80;;;;;;5004889;28;20204;-65
2021/04/08 12:53:26;;;;;;;6.93;4.53;;;10.80;93.90;;;;;;5013039;28;20184;-65
2021/04/08 12:55:53;;;;;;;8.07;4.30;;;11.20;95.20;;;;;;5012274;28;20670;-65
2021/04/08 12:58:20;;;;;;;5.20;4.20;;;11.60;92.50;;;;;;5015059;28;20188;-66
2021/04/08 13:00:46;;;;;;;6.73;4.90;;;11.40;92.90;;;;;;5003263;28;20193;-64
2021/04/08 13:03:14;;;;;;;8.33;4.43;;;11.50;94.40;;;;;;4995112;28;20177;-64